createdAt,value
2023-03-20T00:02:04.438Z,19.77
2023-03-20T00:04:31.627Z,24.63
2023-03-20T00:06:58.652Z,21.98
2023-03-20T00:09:28.492Z,20.02
2023-03-20T00:11:56.175Z,22.05
2023-03-20T00:14:24.960Z,15.82
2023-03-20T00:16:52.773Z,16.83
2023-03-20T00:19:24.902Z,21.10
2023-03-20T00:21:53.626Z,25.05
2023-03-20T00:24:21.436Z,19.77
2023-03-20T00:26:50.501Z,21.25
2023-03-20T00:29:20.812Z,25.20
2023-03-20T00:31:48.292Z,28.02
2023-03-20T00:34:20.721Z,26.63
2023-03-20T00:36:47.715Z,28.05
2023-03-20T00:39:14.622Z,24.67
2023-03-20T00:42:06.751Z,26.63
2023-03-20T00:44:41.869Z,27.02
2023-03-20T00:47:18.142Z,26.45
2023-03-20T00:49:47.280Z,22.55
2023-03-20T00:52:15.165Z,20.25
2023-03-20T00:54:42.091Z,18.27
2023-03-20T00:57:22.616Z,21.40
2023-03-20T01:00:28.084Z,21.75
2023-03-20T01:02:56.884Z,23.70
2023-03-20T01:05:25.072Z,22.20
2023-03-20T01:07:51.994Z,25.33
2023-03-20T01:10:19.438Z,28.08
2023-03-20T01:12:47.567Z,24.98
2023-03-20T01:15:20.498Z,27.17
2023-03-20T01:17:48.072Z,26.17
2023-03-20T01:20:17.858Z,28.13
2023-03-20T01:22:44.879Z,29.20
2023-03-20T01:25:12.188Z,25.13
2023-03-20T01:27:53.754Z,28.38
2023-03-20T01:30:26.779Z,27.65
2023-03-20T01:32:54.972Z,26.40
2023-03-20T01:35:23.805Z,34.47
2023-03-20T01:37:51.332Z,31.52
2023-03-20T01:40:47.340Z,27.23
2023-03-20T01:43:18.576Z,28.52
2023-03-20T01:46:23.073Z,21.63
2023-03-20T01:48:53.608Z,30.92
2023-03-20T01:51:26.166Z,32.80
2023-03-20T01:54:14.340Z,27.42
2023-03-20T01:56:46.999Z,27.83
2023-03-20T01:59:41.517Z,24.13
2023-03-20T02:02:10.399Z,25.05
2023-03-20T02:04:44.311Z,25.95
2023-03-20T02:07:13.933Z,25.92
2023-03-20T02:09:40.892Z,27.73
2023-03-20T02:12:08.904Z,27.48
2023-03-20T02:14:37.070Z,26.05
2023-03-20T02:17:10.152Z,24.70
2023-03-20T02:20:06.653Z,28.17
2023-03-20T02:22:45.708Z,27.95
2023-03-20T02:25:49.958Z,22.02
2023-03-20T02:28:40.881Z,25.02
2023-03-20T02:31:50.690Z,29.52
2023-03-20T02:34:30.974Z,25.38
2023-03-20T02:37:13.366Z,24.75
2023-03-20T02:40:01.708Z,24.50
2023-03-20T02:43:01.033Z,23.38
2023-03-20T02:45:29.201Z,23.25
2023-03-20T02:48:16.329Z,22.20
2023-03-20T02:50:59.439Z,19.85
2023-03-20T02:54:01.087Z,21.67
2023-03-20T02:56:34.247Z,21.20
2023-03-20T02:59:27.004Z,23.55
2023-03-20T03:02:04.852Z,24.45
2023-03-20T03:04:37.217Z,24.65
2023-03-20T03:07:08.070Z,25.90
2023-03-20T03:09:40.815Z,24.40
2023-03-20T03:12:22.563Z,23.35
2023-03-20T03:14:53.996Z,21.25
2023-03-20T03:17:25.950Z,58.70
2023-03-20T03:20:01.003Z,34.03
2023-03-20T03:22:28.257Z,45.92
2023-03-20T03:24:55.562Z,29.60
2023-03-20T03:27:33.303Z,27.98
2023-03-20T03:30:08.296Z,24.70
2023-03-20T03:32:41.733Z,37.67
2023-03-20T03:35:16.451Z,28.67
2023-03-20T03:37:51.869Z,29.60
2023-03-20T03:40:21.153Z,33.22
2023-03-20T03:43:04.088Z,33.53
2023-03-20T03:45:42.649Z,29.67
2023-03-20T03:48:15.017Z,33.90
2023-03-20T03:50:49.301Z,34.10
2023-03-20T03:53:31.961Z,31.88
2023-03-20T03:56:05.343Z,32.38
2023-03-20T03:58:43.712Z,32.10
2023-03-20T04:01:13.085Z,32.03
2023-03-20T04:03:43.835Z,35.85
2023-03-20T04:06:16.057Z,26.67
2023-03-20T04:08:43.839Z,29.98
2023-03-20T04:11:19.576Z,28.27
2023-03-20T04:13:49.368Z,27.45
2023-03-20T04:16:18.052Z,27.15
2023-03-20T04:18:46.448Z,25.60
2023-03-20T04:21:13.662Z,25.60
2023-03-20T04:23:40.579Z,28.52
2023-03-20T04:26:07.883Z,24.25
2023-03-20T04:28:34.961Z,26.80
2023-03-20T04:31:02.837Z,28.00
2023-03-20T04:33:29.885Z,30.20
2023-03-20T04:35:56.990Z,28.73
2023-03-20T04:38:24.644Z,25.10
2023-03-20T04:40:51.911Z,27.60
2023-03-20T04:43:19.102Z,24.17
2023-03-20T04:45:46.174Z,21.60
2023-03-20T04:48:13.207Z,23.25
2023-03-20T04:50:40.203Z,24.88
2023-03-20T04:53:07.534Z,24.02
2023-03-20T04:55:34.742Z,21.55
2023-03-20T04:58:01.945Z,23.02
2023-03-20T05:00:28.860Z,25.52
2023-03-20T05:02:56.088Z,24.38
2023-03-20T05:05:23.830Z,27.15
2023-03-20T05:07:51.844Z,27.23
2023-03-20T05:10:19.227Z,21.23
2023-03-20T05:12:46.893Z,22.17
2023-03-20T05:15:14.231Z,23.20
2023-03-20T05:17:41.236Z,22.80
2023-03-20T05:20:09.389Z,18.05
2023-03-20T05:22:36.363Z,23.27
2023-03-20T05:25:03.688Z,25.77
2023-03-20T05:27:30.674Z,26.10
2023-03-20T05:29:57.681Z,23.95
2023-03-20T05:32:24.617Z,26.48
2023-03-20T05:34:51.587Z,27.92
2023-03-20T05:37:18.565Z,42.42
2023-03-20T05:39:45.593Z,30.95
2023-03-20T05:42:12.583Z,33.53
2023-03-20T05:44:39.549Z,32.05
2023-03-20T05:47:06.735Z,34.45
2023-03-20T05:49:33.657Z,37.10
2023-03-20T05:52:01.098Z,28.83
2023-03-20T05:54:28.003Z,31.40
2023-03-20T05:56:56.678Z,26.98
2023-03-20T05:59:24.880Z,23.38
2023-03-20T06:01:51.805Z,27.60
2023-03-20T06:04:18.784Z,31.13
2023-03-20T06:06:45.744Z,22.73
2023-03-20T06:09:12.811Z,26.73
2023-03-20T06:11:39.802Z,25.73
2023-03-20T06:14:06.809Z,25.33
2023-03-20T06:16:33.830Z,24.73
2023-03-20T06:19:00.771Z,28.67
2023-03-20T06:21:27.732Z,25.90
2023-03-20T06:23:54.946Z,28.05
2023-03-20T06:26:21.953Z,33.03
2023-03-20T06:28:49.082Z,32.10
2023-03-20T06:31:16.617Z,28.83
2023-03-20T06:33:44.502Z,30.45
2023-03-20T06:36:11.774Z,27.83
2023-03-20T06:38:39.461Z,25.33
2023-03-20T06:41:07.069Z,25.95
2023-03-20T06:43:33.990Z,29.55
2023-03-20T06:46:01.008Z,30.58
2023-03-20T06:48:27.954Z,29.13
2023-03-20T06:50:54.998Z,32.15
2023-03-20T06:53:22.471Z,24.60
2023-03-20T06:55:51.771Z,29.25
2023-03-20T06:58:18.945Z,27.80
2023-03-20T07:00:46.737Z,28.40
2023-03-20T07:03:13.990Z,26.35
2023-03-20T07:05:40.974Z,25.63
2023-03-20T07:08:08.416Z,25.48
2023-03-20T07:10:35.855Z,24.08
2023-03-20T07:13:02.837Z,24.02
2023-03-20T07:15:30.246Z,27.15
2023-03-20T07:17:57.423Z,28.90
2023-03-20T07:20:24.628Z,22.98
2023-03-20T07:22:51.784Z,25.27
2023-03-20T07:25:26.155Z,26.50
2023-03-20T07:27:59.325Z,29.07
2023-03-20T07:30:26.403Z,23.98
2023-03-20T07:32:53.857Z,30.65
2023-03-20T07:35:21.190Z,25.30
2023-03-20T07:37:48.215Z,26.30
2023-03-20T07:40:15.614Z,26.98
2023-03-20T07:42:42.601Z,27.30
2023-03-20T07:45:09.993Z,25.40
2023-03-20T07:47:37.302Z,28.65
2023-03-20T07:50:06.434Z,30.20
2023-03-20T07:52:35.087Z,26.80
2023-03-20T07:55:02.068Z,29.05
2023-03-20T07:57:29.064Z,27.50
2023-03-20T07:59:56.046Z,28.95
2023-03-20T08:02:23.037Z,28.25
2023-03-20T08:04:50.132Z,29.60
2023-03-20T08:07:17.230Z,26.42
2023-03-20T08:09:44.318Z,25.63
2023-03-20T08:12:11.257Z,25.65
2023-03-20T08:14:38.874Z,23.38
2023-03-20T08:17:14.572Z,31.25
2023-03-20T08:19:42.926Z,26.45
2023-03-20T08:22:09.936Z,25.17
2023-03-20T08:24:37.022Z,29.42
2023-03-20T08:27:04.575Z,30.40
2023-03-20T08:29:31.702Z,30.33
2023-03-20T08:31:58.669Z,26.42
2023-03-20T08:34:26.484Z,25.27
2023-03-20T08:36:53.733Z,27.17
2023-03-20T08:39:21.068Z,34.88
2023-03-20T08:41:48.040Z,30.73
2023-03-20T08:44:15.276Z,26.13
2023-03-20T08:46:43.851Z,26.70
2023-03-20T08:49:10.877Z,26.88
2023-03-20T08:51:37.856Z,28.33
2023-03-20T08:54:04.942Z,24.38
2023-03-20T08:56:32.060Z,27.02
2023-03-20T08:58:59.004Z,24.52
2023-03-20T09:01:35.380Z,32.30
2023-03-20T09:04:09.052Z,26.08
2023-03-20T09:06:38.956Z,25.02
2023-03-20T09:09:06.011Z,31.52
2023-03-20T09:11:33.624Z,24.20
2023-03-20T09:14:01.236Z,25.83
2023-03-20T09:16:28.300Z,24.00
2023-03-20T09:18:55.496Z,26.73
2023-03-20T09:21:22.551Z,27.63
2023-03-20T09:23:49.520Z,25.98
2023-03-20T09:26:16.998Z,25.60
2023-03-20T09:28:44.029Z,29.77
2023-03-20T09:31:12.195Z,24.85
2023-03-20T09:33:39.294Z,28.38
2023-03-20T09:36:08.053Z,27.48
2023-03-20T09:38:35.102Z,24.83
2023-03-20T09:41:03.909Z,27.92
2023-03-20T09:43:36.840Z,29.65
2023-03-20T09:46:12.803Z,26.15
2023-03-20T09:48:54.446Z,26.92
2023-03-20T09:51:57.833Z,29.67
2023-03-20T09:54:53.697Z,25.63
2023-03-20T09:57:25.792Z,28.75
2023-03-20T09:59:59.615Z,27.08
2023-03-20T10:02:51.965Z,25.60
2023-03-20T10:05:29.776Z,23.42
2023-03-20T10:08:00.539Z,25.02
2023-03-20T10:10:39.463Z,25.90
2023-03-20T10:13:30.871Z,27.38
2023-03-20T10:16:03.967Z,26.90
2023-03-20T10:18:36.795Z,25.63
2023-03-20T10:21:21.138Z,25.85
2023-03-20T10:23:59.300Z,28.77
2023-03-20T10:26:28.224Z,28.13
2023-03-20T10:29:05.830Z,27.67
2023-03-20T10:31:56.396Z,32.05
2023-03-20T10:34:29.464Z,25.88
2023-03-20T10:37:10.711Z,27.15
2023-03-20T10:40:04.398Z,26.98
2023-03-20T10:42:41.370Z,28.15
2023-03-20T10:45:43.398Z,28.75
2023-03-20T10:48:17.274Z,28.27
2023-03-20T10:50:49.172Z,27.20
2023-03-20T10:53:27.645Z,25.13
2023-03-20T10:55:58.711Z,29.73
2023-03-20T10:58:31.872Z,33.72
2023-03-20T11:00:59.443Z,34.58
2023-03-20T11:03:29.615Z,29.40
2023-03-20T11:06:10.209Z,42.10
2023-03-20T11:08:41.350Z,26.77
2023-03-20T11:13:41.925Z,25.70
2023-03-20T11:16:19.966Z,29.05
2023-03-20T11:18:49.394Z,27.02
2023-03-20T11:21:25.527Z,29.27
2023-03-20T11:23:53.819Z,27.90
2023-03-20T11:26:37.712Z,27.40
2023-03-20T11:29:16.398Z,31.02
2023-03-20T11:31:43.803Z,27.20
2023-03-20T11:34:15.051Z,30.52
2023-03-20T11:37:09.649Z,29.33
2023-03-20T11:39:38.364Z,35.22
2023-03-20T11:42:26.511Z,30.00
2023-03-20T11:45:01.729Z,36.30
2023-03-20T11:47:32.536Z,32.70
2023-03-20T11:50:01.971Z,31.52
2023-03-20T11:52:33.409Z,30.75
2023-03-20T11:55:20.413Z,30.02
2023-03-20T11:57:49.603Z,31.70
2023-03-20T12:00:26.715Z,38.05
2023-03-20T12:02:53.865Z,37.90
2023-03-20T12:05:37.819Z,30.10
2023-03-20T12:08:15.986Z,33.85
2023-03-20T12:10:46.391Z,34.58
2023-03-20T12:13:24.962Z,34.13
2023-03-20T12:15:57.778Z,50.58
2023-03-20T12:18:47.956Z,44.20
2023-03-20T12:21:39.227Z,38.65
2023-03-20T12:24:06.177Z,38.35
2023-03-20T12:26:56.285Z,39.17
2023-03-20T12:29:56.165Z,52.00
2023-03-20T12:32:46.458Z,39.60
2023-03-20T12:35:16.856Z,48.27
2023-03-20T12:37:43.944Z,43.30
2023-03-20T12:40:19.072Z,39.78
2023-03-20T12:43:12.143Z,45.55
2023-03-20T12:45:44.975Z,91.40
2023-03-20T12:48:33.443Z,92.32
2023-03-20T12:51:06.749Z,64.38
2023-03-20T12:53:39.735Z,49.92
2023-03-20T12:56:45.334Z,45.28
2023-03-20T12:59:39.097Z,48.22
2023-03-20T13:02:48.267Z,49.92
2023-03-20T13:05:15.550Z,43.50
2023-03-20T13:08:03.968Z,113.90
2023-03-20T13:10:37.261Z,44.72
2023-03-20T13:13:23.235Z,33.45
2023-03-20T13:15:59.766Z,35.25
2023-03-20T13:18:58.933Z,32.67
2023-03-20T13:21:56.878Z,32.75
2023-03-20T13:24:45.955Z,33.28
2023-03-20T13:27:18.731Z,30.92
2023-03-20T13:29:59.583Z,28.83
2023-03-20T13:32:32.443Z,28.55
2023-03-20T13:35:05.415Z,30.77
2023-03-20T13:37:39.133Z,32.50
2023-03-20T13:40:26.118Z,30.10
2023-03-20T13:43:13.403Z,31.98
2023-03-20T13:45:42.162Z,31.23
2023-03-20T13:48:29.968Z,27.42
2023-03-20T13:51:17.138Z,32.60
2023-03-20T13:54:21.317Z,30.15
2023-03-20T13:56:54.128Z,32.20
2023-03-20T13:59:40.357Z,27.83
2023-03-20T14:02:17.939Z,29.85
2023-03-20T14:04:45.993Z,25.83
2023-03-20T14:07:34.759Z,28.38
2023-03-20T14:10:24.223Z,32.55
2023-03-20T14:12:55.479Z,33.42
2023-03-20T14:15:25.735Z,28.60
2023-03-20T14:17:52.995Z,26.77
2023-03-20T14:20:41.420Z,28.48
2023-03-20T14:23:21.209Z,26.13
2023-03-20T14:25:49.456Z,29.77
2023-03-20T14:28:16.374Z,24.27
2023-03-20T14:30:51.366Z,30.52
2023-03-20T14:33:18.836Z,31.42
2023-03-20T14:36:12.067Z,28.63
2023-03-20T14:38:45.339Z,27.75
2023-03-20T14:41:34.954Z,23.65
2023-03-20T14:44:26.291Z,28.58
2023-03-20T14:47:05.634Z,25.42
2023-03-20T14:49:52.169Z,25.15
2023-03-20T14:52:58.269Z,28.80
2023-03-20T14:55:30.868Z,27.23
2023-03-20T14:58:06.339Z,28.77
2023-03-20T15:00:46.752Z,28.08
2023-03-20T15:03:18.214Z,28.48
2023-03-20T15:05:46.914Z,26.63
2023-03-20T15:08:25.803Z,27.23
2023-03-20T15:10:59.082Z,30.23
2023-03-20T15:13:28.021Z,30.90
2023-03-20T15:16:05.293Z,28.58
2023-03-20T15:18:38.470Z,30.40
2023-03-20T15:21:16.285Z,31.90
2023-03-20T15:23:47.594Z,29.70
2023-03-20T15:26:16.497Z,26.42
2023-03-20T15:28:48.239Z,34.55
2023-03-20T15:31:34.821Z,30.00
2023-03-20T15:34:06.108Z,29.38
2023-03-20T15:36:40.017Z,29.98
2023-03-20T15:39:28.794Z,29.33
2023-03-20T15:42:03.877Z,32.35
2023-03-20T15:44:39.213Z,32.28
2023-03-20T15:47:23.496Z,36.47
2023-03-20T15:49:54.056Z,32.85
2023-03-20T15:52:29.170Z,28.92
2023-03-20T15:54:59.304Z,33.72
2023-03-20T15:57:36.565Z,30.93
2023-03-20T16:00:06.209Z,31.63
2023-03-20T16:02:33.449Z,34.00
2023-03-20T16:05:00.781Z,34.50
2023-03-20T16:07:31.795Z,32.13
2023-03-20T16:10:02.297Z,31.45
2023-03-20T16:12:29.379Z,30.17
2023-03-20T16:14:58.261Z,30.08
2023-03-20T16:17:26.863Z,33.20
2023-03-20T16:19:53.948Z,35.17
2023-03-20T16:22:33.359Z,31.45
2023-03-20T16:25:02.124Z,29.77
2023-03-20T16:27:34.123Z,32.47
2023-03-20T16:30:16.183Z,30.85
2023-03-20T16:32:47.360Z,26.98
2023-03-20T16:35:21.378Z,31.00
2023-03-20T16:37:52.996Z,37.70
2023-03-20T16:40:38.400Z,35.40
2023-03-20T16:43:18.219Z,37.25
2023-03-20T16:45:50.180Z,38.30
2023-03-20T16:48:17.073Z,37.70
2023-03-20T16:50:48.411Z,35.83
2023-03-20T16:53:19.512Z,30.67
2023-03-20T16:55:51.642Z,41.92
2023-03-20T16:58:23.250Z,37.42
2023-03-20T17:00:57.782Z,45.47
2023-03-20T17:03:49.949Z,39.40
2023-03-20T17:06:20.847Z,37.90
2023-03-20T17:08:53.612Z,37.80
2023-03-20T17:11:34.636Z,50.63
2023-03-20T17:16:30.052Z,49.72
2023-03-20T17:19:03.360Z,61.03
2023-03-20T17:21:30.511Z,61.08
2023-03-20T17:23:57.926Z,44.05
2023-03-20T17:26:25.393Z,40.47
2023-03-20T17:28:52.358Z,45.00
2023-03-20T17:31:19.659Z,46.55
2023-03-20T17:33:46.986Z,44.60
2023-03-20T17:36:30.301Z,46.17
2023-03-20T17:38:58.352Z,40.33
2023-03-20T17:41:26.729Z,53.92
2023-03-20T17:43:54.094Z,38.50
2023-03-20T17:46:27.839Z,44.28
2023-03-20T17:49:13.431Z,44.40
2023-03-20T17:51:40.878Z,42.53
2023-03-20T17:54:07.844Z,38.00
2023-03-20T17:56:34.894Z,39.15
2023-03-20T17:59:03.410Z,42.05
2023-03-20T18:01:32.706Z,39.78
2023-03-20T18:03:59.800Z,35.03
2023-03-20T18:06:30.562Z,36.55
2023-03-20T18:08:58.883Z,39.30
2023-03-20T18:11:27.048Z,38.90
2023-03-20T18:13:54.242Z,34.22
2023-03-20T18:16:26.868Z,38.20
2023-03-20T18:18:54.828Z,41.00
2023-03-20T18:21:22.004Z,33.80
2023-03-20T18:23:48.942Z,31.75
2023-03-20T18:26:25.262Z,37.28
2023-03-20T18:28:54.317Z,31.70
2023-03-20T18:31:21.784Z,29.42
2023-03-20T18:33:50.525Z,28.63
2023-03-20T18:36:20.696Z,31.02
2023-03-20T18:38:47.945Z,30.88
2023-03-20T18:41:15.377Z,27.95
2023-03-20T18:43:43.268Z,32.72
2023-03-20T18:46:18.569Z,29.77
2023-03-20T18:48:46.645Z,28.38
2023-03-20T18:51:14.395Z,29.52
2023-03-20T18:53:41.717Z,29.33
2023-03-20T18:56:17.858Z,26.88
2023-03-20T18:58:46.300Z,26.05
2023-03-20T19:01:15.721Z,25.85
2023-03-20T19:03:44.739Z,25.55
2023-03-20T19:06:20.318Z,29.35
2023-03-20T19:08:48.469Z,27.35
2023-03-20T19:11:17.926Z,28.48
2023-03-20T19:13:52.446Z,28.25
2023-03-20T19:19:06.211Z,29.67
2023-03-20T19:21:34.587Z,27.58
2023-03-20T19:24:04.963Z,26.48
2023-03-20T19:26:33.473Z,27.73
2023-03-20T19:29:02.865Z,28.05
2023-03-20T19:31:30.141Z,28.52
2023-03-20T19:33:57.178Z,26.40
2023-03-20T19:36:30.706Z,29.77
2023-03-20T19:38:59.584Z,28.55
2023-03-20T19:41:28.788Z,30.80
2023-03-20T19:43:56.480Z,27.85
2023-03-20T19:46:42.933Z,25.60
2023-03-20T19:49:21.050Z,25.27
2023-03-20T19:51:49.497Z,23.67
2023-03-20T19:54:16.957Z,29.27
2023-03-20T19:56:44.057Z,27.73
2023-03-20T19:59:11.638Z,25.67
2023-03-20T20:01:38.691Z,21.02
2023-03-20T20:04:06.047Z,25.17
2023-03-20T20:06:33.398Z,24.58
2023-03-20T20:09:01.562Z,22.65
2023-03-20T20:11:28.732Z,18.23
2023-03-20T20:14:14.635Z,22.70
2023-03-20T20:16:43.650Z,18.58
2023-03-20T20:19:11.570Z,20.00
2023-03-20T20:24:26.116Z,14.70
2023-03-20T20:27:14.602Z,12.75
2023-03-20T20:29:42.970Z,16.58
2023-03-20T20:32:09.970Z,14.73
2023-03-20T20:38:19.801Z,16.90
2023-03-20T20:40:15.604Z,18.35
2023-03-20T20:42:43.362Z,18.10
2023-03-20T20:45:14.013Z,15.55
2023-03-20T20:47:42.816Z,14.60
2023-03-20T20:50:14.091Z,17.65
2023-03-20T20:52:41.867Z,16.48
2023-03-20T20:55:22.141Z,15.15
2023-03-20T20:57:51.460Z,16.88
2023-03-20T21:00:19.306Z,14.82
2023-03-20T21:02:46.311Z,11.98
2023-03-20T21:05:15.821Z,10.70
2023-03-20T21:07:44.847Z,15.10
2023-03-20T21:10:13.650Z,13.07
2023-03-20T21:12:57.840Z,6.38
2023-03-20T21:15:26.029Z,6.35
2023-03-20T21:18:00.446Z,5.97
2023-03-20T21:20:28.831Z,5.88
2023-03-20T21:22:55.825Z,7.03
2023-03-20T21:25:36.336Z,6.50
2023-03-20T21:28:05.548Z,5.50
2023-03-20T21:30:33.468Z,6.35
2023-03-20T21:33:01.112Z,8.52
2023-03-20T21:35:28.793Z,7.75
2023-03-20T21:40:43.596Z,6.60
2023-03-20T21:43:11.251Z,16.17
2023-03-20T21:49:03.878Z,14.43
2023-03-20T22:00:14.155Z,7.57
2023-03-20T22:02:26.257Z,6.78
2023-03-20T22:17:00.633Z,11.38
2023-03-20T22:31:19.026Z,9.93
2023-03-20T22:44:53.009Z,9.85
2023-03-20T22:46:53.696Z,7.78
2023-03-20T22:49:20.653Z,7.53
2023-03-20T22:52:07.854Z,8.77
2023-03-20T22:54:34.719Z,9.07
2023-03-20T22:57:01.838Z,10.73
2023-03-20T22:59:28.807Z,9.88
2023-03-20T23:01:55.939Z,9.77
2023-03-20T23:04:24.343Z,9.90
2023-03-20T23:06:51.399Z,8.02
2023-03-20T23:09:18.371Z,8.05
2023-03-20T23:11:45.747Z,6.38
2023-03-20T23:14:21.106Z,11.25
2023-03-20T23:16:49.152Z,9.98
2023-03-20T23:19:16.819Z,10.48
2023-03-20T23:21:46.586Z,10.02
2023-03-20T23:24:13.726Z,9.50
2023-03-20T23:26:40.899Z,8.18
2023-03-20T23:29:07.961Z,8.20
2023-03-20T23:31:34.930Z,10.65
2023-03-20T23:34:01.914Z,8.18
2023-03-20T23:36:37.006Z,7.38
2023-03-20T23:39:10.001Z,6.65
2023-03-20T23:44:24.618Z,10.07
2023-03-20T23:46:51.623Z,5.15
2023-03-20T23:49:18.599Z,7.63
2023-03-20T23:51:45.673Z,6.20
2023-03-20T23:54:12.755Z,4.93
2023-03-20T23:56:40.057Z,6.93
2023-03-20T23:59:20.224Z,6.75
